createdAt,value
2019-04-25T00:01:08.908Z,14.46
2019-04-25T00:03:56.425Z,14.36
2019-04-25T00:07:04.739Z,14.53
2019-04-25T00:13:03.590Z,14.24
2019-04-25T00:15:51.967Z,14.38
2019-04-25T00:18:42.774Z,13.97
2019-04-25T00:24:45.168Z,13.47
2019-04-25T00:29:49.037Z,13.33
2019-04-25T00:32:36.699Z,13.44
2019-04-25T00:35:45.737Z,13.47
2019-04-25T00:38:15.147Z,13.11
2019-04-25T00:41:02.915Z,13.12
2019-04-25T00:44:12.102Z,12.98
2019-04-25T00:46:44.836Z,12.93
2019-04-25T00:49:12.260Z,12.86
2019-04-25T00:57:08.867Z,12.96
2019-04-25T00:59:56.395Z,12.94
2019-04-25T01:05:24.146Z,13.02
2019-04-25T01:08:12.057Z,13.05
2019-04-25T01:16:31.838Z,12.88
2019-04-25T01:19:00.920Z,12.96
2019-04-25T01:21:49.135Z,12.88
2019-04-25T01:24:58.596Z,12.70
2019-04-25T01:27:46.342Z,12.73
2019-04-25T01:30:55.116Z,12.92
2019-04-25T01:34:04.679Z,13.05
2019-04-25T01:36:53.228Z,13.26
2019-04-25T01:39:41.458Z,13.32
2019-04-25T01:42:29.043Z,13.31
2019-04-25T01:55:55.934Z,13.66
2019-04-25T01:58:20.091Z,13.45
2019-04-25T02:01:07.733Z,13.50
2019-04-25T02:03:36.140Z,13.59
2019-04-25T02:14:54.722Z,13.62
2019-04-25T02:22:57.944Z,13.42
2019-04-25T02:25:27.560Z,13.36
2019-04-25T02:28:15.850Z,13.24
2019-04-25T02:31:08.661Z,13.14
2019-04-25T02:33:34.821Z,12.96
2019-04-25T02:36:08.309Z,12.90
2019-04-25T02:38:34.175Z,12.90
2019-04-25T02:41:24.953Z,12.88
2019-04-25T02:44:11.957Z,12.93
2019-04-25T02:47:01.001Z,12.91
2019-04-25T02:50:09.121Z,12.83
2019-04-25T02:58:26.896Z,12.88
2019-04-25T03:01:35.198Z,12.88
2019-04-25T03:04:24.017Z,12.73
2019-04-25T03:07:11.825Z,12.54
2019-04-25T03:10:20.088Z,12.43
2019-04-25T03:13:28.398Z,12.41
2019-04-25T03:15:58.445Z,12.37
2019-04-25T03:26:53.225Z,12.05
2019-04-25T03:29:41.227Z,11.80
2019-04-25T03:32:28.760Z,11.68
2019-04-25T03:34:57.148Z,11.37
2019-04-25T03:37:44.816Z,11.18
2019-04-25T03:40:33.968Z,10.97
2019-04-25T03:45:36.496Z,11.15
2019-04-25T03:48:05.622Z,11.10
2019-04-25T03:50:35.036Z,11.13
2019-04-25T03:53:05.417Z,10.96
2019-04-25T03:55:35.685Z,11.01
2019-04-25T03:58:06.605Z,10.97
2019-04-25T04:01:15.450Z,10.95
2019-04-25T04:03:44.136Z,10.89
2019-04-25T04:06:15.527Z,11.10
2019-04-25T04:11:57.872Z,10.87
2019-04-25T04:14:45.543Z,10.77
2019-04-25T04:17:53.612Z,10.67
2019-04-25T04:20:41.220Z,10.68
2019-04-25T04:23:28.756Z,10.70
2019-04-25T04:31:20.235Z,10.72
2019-04-25T04:33:48.656Z,10.66
2019-04-25T04:36:31.215Z,10.63
2019-04-25T04:39:06.451Z,10.72
2019-04-25T04:41:55.459Z,10.76
2019-04-25T04:44:24.253Z,10.72
2019-04-25T04:49:40.056Z,10.81
2019-04-25T04:52:27.804Z,10.82
2019-04-25T04:55:05.453Z,11.04
2019-04-25T04:57:45.595Z,11.07
2019-04-25T05:00:53.921Z,11.17
2019-04-25T05:04:00.700Z,11.16
2019-04-25T05:06:48.215Z,11.35
2019-04-25T05:11:52.158Z,13.52
2019-04-25T05:14:39.678Z,15.68
2019-04-25T05:17:27.194Z,17.48
2019-04-25T05:20:16.388Z,19.50
2019-04-25T05:22:44.963Z,21.45
2019-04-25T05:25:54.185Z,23.14
2019-04-25T05:28:42.525Z,23.98
2019-04-25T05:37:14.363Z,25.67
2019-04-25T05:39:43.465Z,25.05
2019-04-25T05:45:02.133Z,23.98
2019-04-25T05:47:49.883Z,24.12
2019-04-25T05:50:37.528Z,24.09
2019-04-25T05:53:05.933Z,24.00
2019-04-25T05:55:54.079Z,23.74
2019-04-25T05:58:25.466Z,24.22
2019-04-25T06:03:33.928Z,25.62
2019-04-25T06:06:23.626Z,25.56
2019-04-25T06:12:00.869Z,25.60
2019-04-25T06:14:29.248Z,24.66
2019-04-25T06:17:16.764Z,24.03
2019-04-25T06:20:25.746Z,24.44
2019-04-25T06:23:14.648Z,24.24
2019-04-25T06:25:43.941Z,23.83
2019-04-25T06:31:04.071Z,23.85
2019-04-25T06:33:33.915Z,23.13
2019-04-25T06:36:04.165Z,23.06
2019-04-25T06:42:46.711Z,23.84
2019-04-25T06:45:55.447Z,23.89
2019-04-25T06:48:45.547Z,24.04
2019-04-25T06:51:54.430Z,23.14
2019-04-25T06:54:25.244Z,22.63
2019-04-25T06:57:11.958Z,23.84
2019-04-25T06:59:59.608Z,24.71
2019-04-25T07:05:55.368Z,27.08
2019-04-25T07:11:11.218Z,28.09
2019-04-25T07:16:46.467Z,29.33
2019-04-25T07:19:35.453Z,29.72
2019-04-25T07:24:58.835Z,29.51
2019-04-25T07:30:56.233Z,28.14
2019-04-25T07:34:03.316Z,27.85
2019-04-25T07:36:31.684Z,27.83
2019-04-25T07:39:08.217Z,27.73
2019-04-25T07:41:49.703Z,27.74
2019-04-25T07:44:49.408Z,27.30
2019-04-25T07:47:47.454Z,26.91
2019-04-25T07:50:55.789Z,26.65
2019-04-25T07:53:26.990Z,27.31
2019-04-25T07:55:54.308Z,27.28
2019-04-25T07:58:50.483Z,26.62
2019-04-25T08:01:53.431Z,26.06
2019-04-25T08:04:23.615Z,26.40
2019-04-25T08:07:11.325Z,26.40
2019-04-25T08:09:39.810Z,26.85
2019-04-25T08:12:28.342Z,27.91
2019-04-25T08:15:16.791Z,28.54
2019-04-25T08:18:04.308Z,28.88
2019-04-25T08:21:12.631Z,27.83
2019-04-25T08:24:20.933Z,27.35
2019-04-25T08:27:08.587Z,27.03
2019-04-25T08:35:39.301Z,28.24
2019-04-25T08:40:42.471Z,28.01
2019-04-25T08:43:11.529Z,27.12
2019-04-25T08:45:39.934Z,26.33
2019-04-25T08:56:34.289Z,24.16
2019-04-25T08:59:46.076Z,24.39
2019-04-25T09:02:30.193Z,24.95
2019-04-25T09:05:17.713Z,25.40
2019-04-25T09:07:46.190Z,25.13
2019-04-25T09:10:35.771Z,24.51
2019-04-25T09:16:17.665Z,24.75
2019-04-25T09:21:34.652Z,25.47
2019-04-25T09:24:03.669Z,25.15
2019-04-25T09:26:32.088Z,25.46
2019-04-25T09:29:14.565Z,25.39
2019-04-25T09:34:07.965Z,23.23
2019-04-25T09:36:36.368Z,23.13
2019-04-25T09:39:44.291Z,23.50
2019-04-25T09:42:33.686Z,23.54
2019-04-25T09:45:24.089Z,23.85
2019-04-25T09:48:10.594Z,24.04
2019-04-25T09:51:17.369Z,23.79
2019-04-25T09:57:03.783Z,23.35
2019-04-25T10:02:38.940Z,22.92
2019-04-25T10:05:47.239Z,23.08
2019-04-25T10:08:34.959Z,23.13
2019-04-25T10:11:43.991Z,23.37
2019-04-25T10:14:54.285Z,23.22
2019-04-25T10:17:43.921Z,22.77
2019-04-25T10:20:33.363Z,22.56
2019-04-25T10:23:02.415Z,23.06
2019-04-25T10:25:30.902Z,23.07
2019-04-25T10:28:18.623Z,22.99
2019-04-25T10:31:06.210Z,23.15
2019-04-25T10:33:34.682Z,23.62
2019-04-25T10:41:24.625Z,24.50
2019-04-25T10:44:14.009Z,24.50
2019-04-25T10:46:42.493Z,24.33
2019-04-25T10:49:14.166Z,24.52
2019-04-25T10:51:44.259Z,24.71
2019-04-25T10:54:14.503Z,24.67
2019-04-25T10:56:45.704Z,24.49
2019-04-25T10:59:14.483Z,24.29
2019-04-25T11:07:07.781Z,24.27
2019-04-25T11:09:55.438Z,24.13
2019-04-25T11:12:23.839Z,24.29
2019-04-25T11:15:33.881Z,24.40
2019-04-25T11:18:02.279Z,24.41
2019-04-25T11:21:10.602Z,24.52
2019-04-25T11:26:34.621Z,24.18
2019-04-25T11:31:58.507Z,24.21
2019-04-25T11:34:26.921Z,24.25
2019-04-25T11:37:14.797Z,24.09
2019-04-25T11:42:23.501Z,24.24
2019-04-25T11:44:52.715Z,24.17
2019-04-25T11:47:22.027Z,24.35
2019-04-25T11:49:50.444Z,24.16
2019-04-25T11:52:27.291Z,24.07
2019-04-25T11:54:50.058Z,24.28
2019-04-25T11:57:18.495Z,24.30
2019-04-25T11:59:49.238Z,24.32
2019-04-25T12:02:17.092Z,24.43
2019-04-25T12:04:46.847Z,24.51
2019-04-25T12:07:15.855Z,24.77
2019-04-25T12:09:46.478Z,24.94
2019-04-25T12:12:14.705Z,24.90
2019-04-25T12:14:44.233Z,24.39
2019-04-25T12:17:13.411Z,24.69
2019-04-25T12:19:41.820Z,24.72
2019-04-25T12:22:10.220Z,24.78
2019-04-25T12:24:38.628Z,24.76
2019-04-25T12:27:07.019Z,24.66
2019-04-25T12:29:38.731Z,24.99
2019-04-25T12:32:06.451Z,25.24
2019-04-25T12:34:34.852Z,25.27
2019-04-25T12:37:03.945Z,25.52
2019-04-25T12:39:34.206Z,25.65
2019-04-25T12:42:04.303Z,25.66
2019-04-25T12:44:50.897Z,25.48
2019-04-25T12:47:29.636Z,24.98
2019-04-25T12:49:58.040Z,24.99
2019-04-25T12:52:26.437Z,25.22
2019-04-25T12:57:29.481Z,25.98
2019-04-25T13:00:17.007Z,26.16
2019-04-25T13:05:34.215Z,26.29
2019-04-25T13:08:04.560Z,26.08
2019-04-25T13:13:08.375Z,25.88
2019-04-25T13:15:56.838Z,25.79
2019-04-25T13:18:44.489Z,25.34
2019-04-25T13:21:13.691Z,25.35
2019-04-25T13:23:44.319Z,25.39
2019-04-25T13:29:07.933Z,25.66
2019-04-25T13:32:14.791Z,25.68
2019-04-25T13:37:50.642Z,25.60
2019-04-25T13:40:38.204Z,25.65
2019-04-25T13:43:06.578Z,25.61
2019-04-25T13:45:54.098Z,25.50
2019-04-25T13:48:25.566Z,25.46
2019-04-25T13:50:54.049Z,25.47
2019-04-25T13:53:23.547Z,25.66
2019-04-25T13:55:52.880Z,25.71
2019-04-25T13:58:40.614Z,25.97
2019-04-25T14:04:25.450Z,26.24
2019-04-25T14:06:54.553Z,26.14
2019-04-25T14:14:46.146Z,25.96
2019-04-25T14:17:53.807Z,26.06
2019-04-25T14:20:41.321Z,26.50
2019-04-25T14:23:29.423Z,26.27
2019-04-25T14:26:18.539Z,26.24
2019-04-25T14:28:46.940Z,26.48
2019-04-25T14:31:44.900Z,26.10
2019-04-25T14:34:05.112Z,25.98
2019-04-25T14:39:28.006Z,26.27
2019-04-25T14:44:49.795Z,25.86
2019-04-25T14:50:47.208Z,25.94
2019-04-25T14:53:35.253Z,26.15
2019-04-25T14:56:43.411Z,26.17
2019-04-25T15:02:00.900Z,26.32
2019-04-25T15:05:09.239Z,26.55
2019-04-25T15:13:19.683Z,26.46
2019-04-25T15:16:07.379Z,26.23
2019-04-25T15:18:54.886Z,26.28
2019-04-25T15:21:23.311Z,26.09
2019-04-25T15:23:59.967Z,25.92
2019-04-25T15:26:21.836Z,25.61
2019-04-25T15:31:37.830Z,25.71
2019-04-25T15:37:33.762Z,25.53
2019-04-25T15:43:29.793Z,25.19
2019-04-25T15:48:53.000Z,24.87
2019-04-25T15:51:21.471Z,24.86
2019-04-25T15:53:49.870Z,24.91
2019-04-25T15:56:37.392Z,24.86
2019-04-25T15:59:05.863Z,25.04
2019-04-25T16:04:28.224Z,25.46
2019-04-25T16:07:16.824Z,25.44
2019-04-25T16:09:45.229Z,25.51
2019-04-25T16:12:32.893Z,25.58
2019-04-25T16:17:48.721Z,25.03
2019-04-25T16:20:36.358Z,24.85
2019-04-25T16:25:41.218Z,24.54
2019-04-25T16:28:29.714Z,24.71
2019-04-25T16:36:30.830Z,24.35
2019-04-25T16:42:47.426Z,24.61
2019-04-25T16:45:55.721Z,24.73
2019-04-25T16:51:03.084Z,24.61
2019-04-25T16:53:50.733Z,24.47
2019-04-25T16:56:38.256Z,24.50
2019-04-25T16:59:46.575Z,24.58
2019-04-25T17:02:37.552Z,24.39
2019-04-25T17:05:44.524Z,24.16
2019-04-25T17:10:51.683Z,24.03
2019-04-25T17:16:34.722Z,23.86
2019-04-25T17:21:43.048Z,23.81
2019-04-25T17:24:12.925Z,23.72
2019-04-25T17:27:00.447Z,23.68
2019-04-25T17:29:48.164Z,23.48
2019-04-25T17:32:49.473Z,23.37
2019-04-25T17:35:45.777Z,23.23
2019-04-25T17:38:54.092Z,23.21
2019-04-25T17:41:41.901Z,23.13
2019-04-25T17:44:10.307Z,23.24
2019-04-25T17:47:06.137Z,23.08
2019-04-25T17:49:27.941Z,23.00
2019-04-25T17:52:15.601Z,22.85
2019-04-25T17:55:03.245Z,22.78
2019-04-25T17:57:50.902Z,22.83
2019-04-25T18:00:59.212Z,22.66
2019-04-25T18:03:46.858Z,22.60
2019-04-25T18:06:15.251Z,22.55
2019-04-25T18:08:44.130Z,22.52
2019-04-25T18:11:33.716Z,22.55
2019-04-25T18:16:56.261Z,22.52
2019-04-25T18:25:17.983Z,22.39
2019-04-25T18:30:41.687Z,22.34
2019-04-25T18:33:29.409Z,22.32
2019-04-25T18:36:37.769Z,22.24
2019-04-25T18:39:46.278Z,22.22
2019-04-25T18:42:33.776Z,22.11
2019-04-25T18:47:38.241Z,22.23
2019-04-25T18:50:47.740Z,22.14
2019-04-25T18:53:35.269Z,22.17
2019-04-25T18:56:22.970Z,22.20
2019-04-25T18:59:10.498Z,22.19
2019-04-25T19:01:58.006Z,21.94
2019-04-25T19:04:45.536Z,21.84
2019-04-25T19:07:22.405Z,21.84
2019-04-25T19:09:44.964Z,22.00
2019-04-25T19:12:33.888Z,22.03
2019-04-25T19:15:21.905Z,21.95
2019-04-25T19:18:09.558Z,21.90
2019-04-25T19:20:57.292Z,22.03
2019-04-25T19:23:25.805Z,21.94
2019-04-25T19:26:13.413Z,21.76
2019-04-25T19:28:42.731Z,21.73
2019-04-25T19:31:11.931Z,21.89
2019-04-25T19:33:41.578Z,21.77
2019-04-25T19:36:10.443Z,21.76
2019-04-25T19:38:58.160Z,21.70
2019-04-25T19:44:34.757Z,21.69
2019-04-25T19:47:03.151Z,21.66
2019-04-25T19:49:51.741Z,21.61
2019-04-25T19:52:21.015Z,21.54
2019-04-25T19:55:08.532Z,21.36
2019-04-25T19:57:36.929Z,21.34
2019-04-25T20:03:19.102Z,21.18
2019-04-25T20:09:02.028Z,21.25
2019-04-25T20:14:38.766Z,21.20
2019-04-25T20:17:07.160Z,21.15
2019-04-25T20:19:54.675Z,20.99
2019-04-25T20:22:42.389Z,21.02
2019-04-25T20:25:50.747Z,21.06
2019-04-25T20:28:19.478Z,21.13
2019-04-25T20:30:48.539Z,20.96
2019-04-25T20:33:17.004Z,20.91
2019-04-25T20:35:46.354Z,20.91
2019-04-25T20:38:15.632Z,20.91
2019-04-25T20:40:44.047Z,20.77
2019-04-25T20:43:12.433Z,20.77
2019-04-25T20:45:41.004Z,20.59
2019-04-25T20:48:09.399Z,20.55
2019-04-25T20:50:37.844Z,20.59
2019-04-25T20:53:06.242Z,20.59
2019-04-25T20:55:34.646Z,20.47
2019-04-25T20:58:03.038Z,20.40
2019-04-25T21:00:43.788Z,20.34
2019-04-25T21:03:12.157Z,20.37
2019-04-25T21:05:40.864Z,20.40
2019-04-25T21:08:09.279Z,20.45
2019-04-25T21:10:37.735Z,20.36
2019-04-25T21:13:07.766Z,20.27
2019-04-25T21:15:50.718Z,20.20
2019-04-25T21:18:29.203Z,20.20
2019-04-25T21:20:57.539Z,20.17
2019-04-25T21:23:26.025Z,20.27
2019-04-25T21:25:54.726Z,20.23
2019-04-25T21:28:23.337Z,20.19
2019-04-25T21:30:52.642Z,20.17
2019-04-25T21:33:21.269Z,20.14
2019-04-25T21:35:50.877Z,20.15
2019-04-25T21:38:20.075Z,20.16
2019-04-25T21:41:07.604Z,20.26
2019-04-25T21:46:25.248Z,20.28
2019-04-25T21:49:14.613Z,20.34
2019-04-25T21:52:03.054Z,20.30
2019-04-25T21:54:32.403Z,20.28
2019-04-25T21:57:02.526Z,20.34
2019-04-25T21:59:32.637Z,20.38
2019-04-25T22:04:56.571Z,20.32
2019-04-25T22:07:44.719Z,20.46
2019-04-25T22:10:53.210Z,20.51
2019-04-25T22:13:21.605Z,20.42
2019-04-25T22:15:51.726Z,20.49
2019-04-25T22:18:41.086Z,20.40
2019-04-25T22:21:37.996Z,20.46
2019-04-25T22:24:19.830Z,20.40
2019-04-25T22:32:42.760Z,20.36
2019-04-25T22:35:51.087Z,20.39
2019-04-25T22:38:21.195Z,20.36
2019-04-25T22:40:49.598Z,20.39
2019-04-25T22:46:08.797Z,20.25
2019-04-25T22:48:58.024Z,20.29
2019-04-25T22:51:26.421Z,20.47
2019-04-25T22:53:56.544Z,20.24
2019-04-25T22:56:24.943Z,20.13
2019-04-25T22:59:12.585Z,20.14
2019-04-25T23:02:19.450Z,19.90
2019-04-25T23:07:37.235Z,19.75
2019-04-25T23:13:15.487Z,20.01
2019-04-25T23:15:43.883Z,19.78
2019-04-25T23:23:41.481Z,20.00
2019-04-25T23:26:28.991Z,20.04
2019-04-25T23:29:16.905Z,20.12
2019-04-25T23:32:05.780Z,20.19
2019-04-25T23:34:34.729Z,19.91
2019-04-25T23:37:22.380Z,19.94
2019-04-25T23:39:50.774Z,20.06
2019-04-25T23:42:19.177Z,20.05
2019-04-25T23:47:36.745Z,19.93
2019-04-25T23:50:46.767Z,19.89
2019-04-25T23:53:34.436Z,19.97
2019-04-25T23:56:22.171Z,19.84
2019-04-25T23:58:52.350Z,19.76
